Time;durP1;ratioP1;P1;durP2;ratioP2;P2;SDS_P1;SDS_P2;PMS_P1;PMS_P2;Temp;Humidity;BMP_temperature;BMP_pressure;BME280_temperature;BME280_humidity;BME280_pressure;Samples;Min_cycle;Max_cycle;Signal;HPM_P1;HPM_P2
2024/01/27 00:01:02;;;;;;;5.88;3.22;;;;;;;-142.91;100.00;56616.03;5046767;28;20668;-69
2024/01/27 00:03:28;;;;;;;7.63;2.80;;;;;;;;;;5044032;28;20293;-70
2024/01/27 00:05:56;;;;;;;2.75;2.30;;;;;;;23.25;100.00;56616.03;5045273;28;20661;-70
2024/01/27 00:08:23;;;;;;;5.82;2.50;;;;;;;;;;5044799;28;20294;-69
2024/01/27 00:10:49;;;;;;;5.55;3.00;;;;;;;;;;5047092;28;20281;-70
2024/01/27 00:13:15;;;;;;;6.00;2.92;;;;;;;;;;5045085;28;20219;-69
2024/01/27 00:15:42;;;;;;;5.63;2.10;;;;;;;;;;5045545;28;20704;-69
2024/01/27 00:18:08;;;;;;;6.10;2.78;;;;;;;;;;5044952;28;20246;-70
2024/01/27 00:20:35;;;;;;;4.72;2.78;;;;;;;;;;5045070;28;20651;-70
2024/01/27 00:23:02;;;;;;;6.50;2.60;;;;;;;;;;5044197;28;20282;-69
2024/01/27 00:25:29;;;;;;;5.25;2.50;;;;;;;;;;5044602;28;20234;-70
2024/01/27 00:27:55;;;;;;;9.88;2.78;;;;;;;;;;5045470;28;20720;-70
2024/01/27 00:30:21;;;;;;;6.80;2.22;;;;;;;;;;5045251;28;20280;-69
2024/01/27 00:32:48;;;;;;;4.90;2.42;;;;;;;;;;5045387;28;20295;-70
2024/01/27 00:35:15;;;;;;;4.10;2.33;;;;;;;;;;5044354;28;20242;-68
2024/01/27 00:37:42;;;;;;;2.13;2.00;;;;;;;-142.91;100.00;56616.03;5045556;28;20294;-71
2024/01/27 00:40:10;;;;;;;5.88;2.42;;;;;;;;;;5044755;28;20290;-69
2024/01/27 00:42:37;;;;;;;8.82;2.60;;;;;;;23.33;100.00;56616.03;5045746;28;20311;-71
2024/01/27 00:45:04;;;;;;;5.05;2.40;;;;;;;;;;5044141;28;20908;-70
2024/01/27 00:47:31;;;;;;;2.70;2.13;;;;;;;;;;5045627;28;20300;-69
2024/01/27 00:49:58;;;;;;;2.90;2.58;;;;;;;;;;5043712;28;20294;-68
2024/01/27 00:52:24;;;;;;;3.67;2.17;;;;;;;;;;5044282;28;20690;-70
2024/01/27 00:54:50;;;;;;;2.92;2.08;;;;;;;;;;5042395;28;20783;-69
2024/01/27 00:57:18;;;;;;;5.82;2.05;;;;;;;-142.91;100.00;56616.03;5043533;28;20199;-69
2024/01/27 00:59:45;;;;;;;5.60;2.35;;;;;;;;;;5042988;28;21644;-67
2024/01/27 01:02:12;;;;;;;7.07;2.30;;;;;;;;;;5044261;28;21192;-68
2024/01/27 01:04:38;;;;;;;3.83;2.28;;;;;;;;;;5044467;28;20286;-68
2024/01/27 01:07:05;;;;;;;6.00;2.22;;;;;;;;;;5044249;28;20329;-69
2024/01/27 01:09:31;;;;;;;4.32;2.10;;;;;;;;;;5044507;28;20730;-68
2024/01/27 01:11:57;;;;;;;7.38;2.35;;;;;;;;;;5043405;28;20326;-68
2024/01/27 01:14:25;;;;;;;7.57;2.63;;;;;;;23.25;100.00;56616.03;5044042;28;20317;-68
2024/01/27 01:16:52;;;;;;;3.22;2.30;;;;;;;;;;5044700;28;20226;-69
2024/01/27 01:19:19;;;;;;;4.15;2.17;;;;;;;-142.91;100.00;56616.03;5043643;28;20230;-68
2024/01/27 01:21:45;;;;;;;7.18;3.10;;;;;;;;;;5043817;28;20322;-68
2024/01/27 01:24:11;;;;;;;3.33;1.90;;;;;;;;;;5038888;28;20669;-69
2024/01/27 01:26:38;;;;;;;5.60;2.78;;;;;;;-142.91;100.00;56616.03;5043171;28;20344;-70
2024/01/27 01:29:04;;;;;;;6.60;2.63;;;;;;;;;;5042868;28;20278;-68
2024/01/27 01:31:32;;;;;;;4.15;2.58;;;;;;;;;;5041159;28;20226;-69
2024/01/27 01:33:59;;;;;;;7.97;2.92;;;;;;;;;;5042272;28;20227;-66
2024/01/27 01:36:25;;;;;;;5.88;2.88;;;;;;;;;;5040552;28;20867;-68
2024/01/27 01:38:51;;;;;;;6.90;2.85;;;;;;;;;;5042080;28;20298;-67
2024/01/27 01:41:18;;;;;;;7.53;2.83;;;;;;;;;;5041170;28;21793;-70
2024/01/27 01:43:44;;;;;;;6.13;2.40;;;;;;;;;;5035110;28;20274;-68
2024/01/27 01:46:10;;;;;;;5.60;2.60;;;;;;;;;;5039244;28;20774;-67
2024/01/27 01:48:38;;;;;;;8.63;2.28;;;;;;;;;;5041015;28;20293;-66
2024/01/27 01:51:05;;;;;;;3.53;2.13;;;;;;;;;;5026167;28;20298;-68
2024/01/27 01:53:32;;;;;;;6.00;2.78;;;;;;;;;;5026935;28;20804;-70
2024/01/27 01:55:58;;;;;;;6.10;3.05;;;;;;;;;;5031096;28;20322;-68
2024/01/27 01:58:25;;;;;;;6.65;2.85;;;;;;;;;;5028422;28;21323;-69
2024/01/27 02:00:51;;;;;;;6.38;3.25;;;;;;;;;;5042481;28;20253;-70
2024/01/27 02:03:18;;;;;;;5.25;2.45;;;;;;;;;;5034578;28;20307;-69
2024/01/27 02:05:45;;;;;;;3.65;2.08;;;;;;;;;;5041939;28;20234;-69
2024/01/27 02:08:12;;;;;;;5.15;2.55;;;;;;;;;;5040584;28;20290;-70
2024/01/27 02:10:38;;;;;;;8.00;2.38;;;;;;;;;;5034939;28;20299;-70
2024/01/27 02:13:06;;;;;;;2.90;2.20;;;;;;;;;;5043021;28;20211;-66
2024/01/27 02:15:33;;;;;;;7.82;3.03;;;;;;;;;;5041647;28;20205;-68
2024/01/27 02:17:59;;;;;;;6.93;2.75;;;;;;;;;;5040349;28;21743;-69
2024/01/27 02:20:25;;;;;;;8.38;2.97;;;;;;;;;;5042236;28;20286;-70
2024/01/27 02:22:53;;;;;;;3.88;2.15;;;;;;;;;;5042486;28;20711;-69
2024/01/27 02:25:21;;;;;;;2.60;2.20;;;;;;;;;;5042038;28;20232;-69
2024/01/27 02:27:48;;;;;;;5.63;2.40;;;;;;;;;;5042653;28;20550;-68
2024/01/27 02:30:14;;;;;;;4.88;2.58;;;;;;;;;;5041607;28;20676;-67
2024/01/27 02:32:40;;;;;;;5.20;2.33;;;;;;;;;;5043970;28;20282;-69
2024/01/27 02:35:08;;;;;;;3.95;2.45;;;;;;;;;;5042504;28;20735;-66
2024/01/27 02:37:34;;;;;;;3.97;2.50;;;;;;;;;;5043091;28;20206;-68
2024/01/27 02:40:00;;;;;;;6.40;2.75;;;;;;;;;;5041741;28;20776;-68
2024/01/27 02:42:28;;;;;;;4.57;2.55;;;;;;;-142.91;100.00;56616.03;5042520;28;20227;-68
2024/01/27 02:44:55;;;;;;;6.18;2.75;;;;;;;;;;5042352;28;20299;-69
2024/01/27 02:47:21;;;;;;;2.53;2.10;;;;;;;;;;5037180;28;20295;-68
2024/01/27 02:49:47;;;;;;;7.28;2.58;;;;;;;;;;5041506;28;20286;-67
2024/01/27 02:52:14;;;;;;;4.65;2.55;;;;;;;;;;5043260;28;20297;-67
2024/01/27 02:54:41;;;;;;;3.63;2.40;;;;;;;;;;5041643;28;20276;-67
2024/01/27 02:57:06;;;;;;;8.38;2.92;;;;;;;;;;5043115;28;20282;-67
2024/01/27 02:59:35;;;;;;;8.70;2.55;;;;;;;;;;5042510;28;20678;-68
2024/01/27 03:02:01;;;;;;;2.63;2.42;;;;;;;;;;5042514;28;20795;-68
2024/01/27 03:04:27;;;;;;;7.00;2.30;;;;;;;;;;5043319;28;20282;-68
2024/01/27 03:06:54;;;;;;;7.70;3.05;;;;;;;;;;5043220;28;20783;-67
2024/01/27 03:09:21;;;;;;;4.50;2.25;;;;;;;;;;5042515;28;20762;-68
2024/01/27 03:11:48;;;;;;;5.18;2.90;;;;;;;;;;5042987;28;20290;-68
2024/01/27 03:14:14;;;;;;;4.05;2.40;;;;;;;;;;5042228;28;20227;-68
2024/01/27 03:16:43;;;;;;;2.65;1.90;;;;;;;;;;5042633;28;20260;-68
2024/01/27 03:19:10;;;;;;;6.90;2.30;;;;;;;;;;5042673;28;20199;-68
2024/01/27 03:21:36;;;;;;;2.00;1.88;;;;;;;;;;5042397;28;20296;-68
2024/01/27 03:24:03;;;;;;;5.43;1.85;;;;;;;;;;5042658;28;20293;-69
2024/01/27 03:26:29;;;;;;;2.55;1.75;;;;;;;;;;5042862;28;20305;-68
2024/01/27 03:28:56;;;;;;;3.30;1.80;;;;;;;-142.91;100.00;56616.03;5041852;28;20827;-68
2024/01/27 03:31:22;;;;;;;5.30;1.65;;;;;;;;;;5037923;28;20290;-67
2024/01/27 03:33:50;;;;;;;2.20;1.90;;;;;;;-142.91;100.00;56616.03;5041157;28;20233;-68
2024/01/27 03:36:17;;;;;;;5.35;2.20;;;;;;;;;;5040174;28;20199;-68
2024/01/27 03:38:44;;;;;;;3.50;1.75;;;;;;;;;;5039731;28;20219;-68
2024/01/27 03:41:10;;;;;;;5.95;1.77;;;;;;;;;;5041240;28;20740;-68
2024/01/27 03:43:36;;;;;;;4.25;2.33;;;;;;;;;;5041833;28;20493;-67
2024/01/27 03:46:04;;;;;;;7.43;2.92;;;;;;;;;;5040350;28;20222;-68
2024/01/27 03:48:30;;;;;;;4.80;2.30;;;;;;;;;;5040019;28;20203;-67
2024/01/27 03:50:58;;;;;;;2.92;1.60;;;;;;;-142.91;100.00;56616.03;5040219;28;20203;-67
2024/01/27 03:53:24;;;;;;;2.60;2.40;;;;;;;;;;5041179;28;20309;-67
2024/01/27 03:55:51;;;;;;;5.82;2.17;;;;;;;;;;5042451;28;20321;-67
2024/01/27 03:58:17;;;;;;;2.90;2.13;;;;;;;;;;5043453;28;20210;-67
2024/01/27 04:00:44;;;;;;;2.55;2.35;;;;;;;-142.91;100.00;56616.03;5045902;28;20985;-67
2024/01/27 04:03:10;;;;;;;2.60;2.38;;;;;;;;;;5046174;28;20353;-67
2024/01/27 04:05:37;;;;;;;4.60;1.90;;;;;;;;;;5045538;28;20294;-67
2024/01/27 04:08:05;;;;;;;4.35;2.42;;;;;;;;;;5046090;28;20282;-68
2024/01/27 04:10:32;;;;;;;2.90;2.10;;;;;;;;;;5046953;28;20303;-67
2024/01/27 04:12:58;;;;;;;2.33;1.85;;;;;;;;;;5046119;28;20286;-67
2024/01/27 04:15:24;;;;;;;5.97;2.33;;;;;;;;;;5046541;28;20305;-68
2024/01/27 04:17:51;;;;;;;3.10;1.95;;;;;;;23.41;100.00;108158.16;5045472;28;20735;-68
2024/01/27 04:20:17;;;;;;;2.75;1.52;;;;;;;;;;5046239;28;20289;-67
2024/01/27 04:22:44;;;;;;;5.53;2.42;;;;;;;-142.91;100.00;56616.03;5046146;28;20646;-67
2024/01/27 04:25:12;;;;;;;4.13;2.20;;;;;;;;;;5046847;28;20285;-68
2024/01/27 04:27:39;;;;;;;4.22;2.20;;;;;;;;;;5045605;28;20301;-69
2024/01/27 04:30:06;;;;;;;6.63;2.28;;;;;;;;;;5045873;28;20203;-69
2024/01/27 04:32:32;;;;;;;4.15;1.92;;;;;;;;;;5045894;28;21090;-69
2024/01/27 04:34:58;;;;;;;6.28;1.88;;;;;;;;;;5046013;28;20302;-69
2024/01/27 04:37:25;;;;;;;3.53;1.80;;;;;;;;;;5046177;28;20230;-68
2024/01/27 04:39:51;;;;;;;6.53;2.30;;;;;;;;;;5044961;28;20199;-69
2024/01/27 04:42:20;;;;;;;2.92;2.00;;;;;;;;;;5045543;28;20873;-69
2024/01/27 04:44:46;;;;;;;2.70;2.10;;;;;;;;;;5045704;28;20290;-69
2024/01/27 04:47:12;;;;;;;4.88;2.63;;;;;;;;;;5045708;28;20286;-67
2024/01/27 04:49:39;;;;;;;5.90;2.42;;;;;;;;;;5044405;28;20613;-68
2024/01/27 04:52:05;;;;;;;3.22;2.33;;;;;;;;;;5045337;28;20334;-68
2024/01/27 04:54:32;;;;;;;3.47;2.10;;;;;;;;;;5045838;28;20215;-68
2024/01/27 04:56:58;;;;;;;2.70;1.83;;;;;;;;;;5044844;28;20748;-69
2024/01/27 04:59:26;;;;;;;4.80;2.40;;;;;;;;;;5044820;28;20333;-68
2024/01/27 05:01:52;;;;;;;3.67;2.17;;;;;;;;;;5045380;28;20660;-67
2024/01/27 05:04:19;;;;;;;4.40;2.45;;;;;;;;;;5045404;28;20211;-67
2024/01/27 05:06:46;;;;;;;5.35;2.55;;;;;;;;;;5045182;28;20265;-69
2024/01/27 05:09:13;;;;;;;2.40;1.95;;;;;;;;;;5044477;28;20605;-69
2024/01/27 05:11:39;;;;;;;3.00;2.35;;;;;;;;;;5045783;28;20210;-68
2024/01/27 05:14:05;;;;;;;5.97;2.17;;;;;;;;;;5044775;28;20207;-69
2024/01/27 05:16:34;;;;;;;4.13;2.10;;;;;;;;;;5045026;28;20289;-68
2024/01/27 05:19:00;;;;;;;5.90;2.22;;;;;;;;;;5043791;28;20673;-68
2024/01/27 05:21:27;;;;;;;3.38;2.10;;;;;;;;;;5044192;28;20309;-68
2024/01/27 05:23:54;;;;;;;5.10;2.10;;;;;;;;;;5044380;28;21060;-69
2024/01/27 05:26:21;;;;;;;4.65;2.00;;;;;;;-142.91;100.00;56616.03;5044785;28;20673;-68
2024/01/27 05:28:47;;;;;;;6.07;2.47;;;;;;;;;;5044942;28;20286;-69
2024/01/27 05:31:14;;;;;;;4.82;2.60;;;;;;;;;;5045011;28;20294;-69
2024/01/27 05:33:41;;;;;;;2.83;2.53;;;;;;;23.25;100.00;56616.03;5044768;28;20282;-68
2024/01/27 05:36:08;;;;;;;6.03;3.42;;;;;;;;;;5043327;28;20997;-68
2024/01/27 05:38:34;;;;;;;3.53;2.60;;;;;;;;;;5039456;28;20298;-67
2024/01/27 05:41:01;;;;;;;3.55;3.25;;;;;;;23.25;100.00;56616.03;5043108;28;20286;-67
2024/01/27 05:43:28;;;;;;;7.72;4.90;;;;;;;;;;5043185;28;20296;-68
2024/01/27 05:45:54;;;;;;;6.38;4.32;;;;;;;;;;5042444;28;20278;-70
2024/01/27 05:48:21;;;;;;;10.50;4.82;;;;;;;;;;5042186;28;20590;-67
2024/01/27 05:50:57;;;;;;;6.30;4.07;;;;;;;;;;5041527;28;20290;-68
2024/01/27 05:53:23;;;;;;;4.95;4.35;;;;;;;23.26;100.00;56616.03;5042622;28;21186;-68
2024/01/27 05:55:50;;;;;;;8.68;4.13;;;;;;;;;;5042301;28;20317;-68
2024/01/27 05:58:16;;;;;;;4.90;3.50;;;;;;;;;;5042155;28;20285;-68
2024/01/27 06:00:43;;;;;;;6.63;3.78;;;;;;;;;;5043198;28;20660;-68
2024/01/27 06:03:09;;;;;;;6.22;4.75;;;;;;;;;;5043461;28;20297;-68
2024/01/27 06:05:36;;;;;;;5.55;4.00;;;;;;;;;;5042855;28;20207;-69
2024/01/27 06:08:04;;;;;;;3.42;3.05;;;;;;;;;;5044163;28;20291;-68
2024/01/27 06:10:31;;;;;;;6.85;3.38;;;;;;;;;;5042669;28;20302;-68
2024/01/27 06:12:58;;;;;;;6.13;3.47;;;;;;;;;;5044400;28;20221;-70
2024/01/27 06:15:25;;;;;;;10.93;3.35;;;;;;;;;;5043717;28;20219;-67
2024/01/27 06:17:51;;;;;;;3.97;3.55;;;;;;;;;;5043804;28;20219;-68
2024/01/27 06:20:18;;;;;;;6.93;3.13;;;;;;;;;;5043243;28;20287;-69
2024/01/27 06:22:45;;;;;;;4.18;3.22;;;;;;;;;;5044459;28;20241;-68
2024/01/27 06:25:12;;;;;;;4.15;3.40;;;;;;;;;;5042897;28;20767;-67
2024/01/27 06:27:41;;;;;;;5.50;3.30;;;;;;;;;;5044014;28;20294;-72
2024/01/27 06:30:09;;;;;;;4.20;3.00;;;;;;;-142.91;100.00;56616.03;5043244;28;20234;-68
2024/01/27 06:32:36;;;;;;;5.10;3.85;;;;;;;;;;5043958;28;20317;-69
2024/01/27 06:35:02;;;;;;;4.15;3.67;;;;;;;;;;5043305;28;20247;-68
2024/01/27 06:37:28;;;;;;;5.82;3.30;;;;;;;;;;5043793;28;20648;-69
2024/01/27 06:39:55;;;;;;;6.88;5.53;;;;;;;;;;5042824;28;20306;-68
2024/01/27 06:42:23;;;;;;;6.95;5.38;;;;;;;23.26;100.00;56616.03;5043688;28;21197;-71
2024/01/27 06:44:49;;;;;;;3.40;3.10;;;;;;;;;;5043087;28;20764;-72
2024/01/27 06:47:16;;;;;;;3.58;2.50;;;;;;;;;;5043224;28;20306;-69
2024/01/27 06:49:42;;;;;;;3.85;3.42;;;;;;;;;;5042874;28;20305;-69
2024/01/27 06:52:08;;;;;;;3.90;3.35;;;;;;;;;;5043764;28;20235;-69
2024/01/27 06:54:36;;;;;;;2.80;2.55;;;;;;;;;;5043168;28;20664;-68
2024/01/27 06:57:02;;;;;;;4.00;3.17;;;;;;;;;;5043414;28;20199;-69
2024/01/27 06:59:30;;;;;;;2.90;2.50;;;;;;;;;;5043370;28;20282;-71
2024/01/27 07:01:56;;;;;;;3.75;1.85;;;;;;;;;;5043214;28;20207;-69
2024/01/27 07:04:24;;;;;;;2.90;1.50;;;;;;;;;;5043403;28;20795;-69
2024/01/27 07:06:50;;;;;;;2.83;1.42;;;;;;;23.25;100.00;56616.03;5043152;28;20803;-66
2024/01/27 07:09:17;;;;;;;1.70;1.60;;;;;;;;;;5043282;28;20289;-68
2024/01/27 07:11:44;;;;;;;2.20;2.00;;;;;;;;;;5043715;28;20220;-68
2024/01/27 07:14:10;;;;;;;3.70;2.40;;;;;;;;;;5043325;28;20760;-69
2024/01/27 07:16:38;;;;;;;3.67;2.17;;;;;;;23.25;100.00;56616.03;5043072;28;20306;-67
2024/01/27 07:19:04;;;;;;;3.00;1.35;;;;;;;;;;5043286;28;20290;-68
2024/01/27 07:21:31;;;;;;;3.63;2.83;;;;;;;;;;5043710;28;20227;-72
2024/01/27 07:23:57;;;;;;;2.75;1.85;;;;;;;;;;5043553;28;20206;-71
2024/01/27 07:26:24;;;;;;;2.63;1.90;;;;;;;23.25;100.00;56616.03;5042727;28;20293;-68
2024/01/27 07:28:50;;;;;;;2.10;2.00;;;;;;;;;;5043105;28;20241;-70
2024/01/27 07:31:17;;;;;;;2.53;2.00;;;;;;;;;;5046405;28;20260;-71
2024/01/27 07:33:45;;;;;;;5.13;1.77;;;;;;;;;;5047456;28;20206;-73
2024/01/27 07:36:12;;;;;;;2.38;1.40;;;;;;;-142.91;100.00;56616.03;5046735;28;20231;-71
2024/01/27 07:38:38;;;;;;;2.45;2.17;;;;;;;;;;5046831;28;20217;-70
2024/01/27 07:41:05;;;;;;;4.20;3.00;;;;;;;;;;5047032;28;20386;-72
2024/01/27 07:43:31;;;;;;;3.42;1.90;;;;;;;;;;5047312;28;20302;-69
2024/01/27 07:45:57;;;;;;;2.65;1.70;;;;;;;;;;5041619;28;20492;-68
2024/01/27 07:48:24;;;;;;;2.55;2.28;;;;;;;;;;5045574;28;20772;-70
2024/01/27 07:50:52;;;;;;;4.05;2.65;;;;;;;;;;5044071;28;20242;-69
2024/01/27 07:53:18;;;;;;;6.05;2.53;;;;;;;;;;5045714;28;20206;-69
2024/01/27 07:55:45;;;;;;;2.13;1.92;;;;;;;;;;5045029;28;20218;-69
2024/01/27 07:58:11;;;;;;;2.38;2.28;;;;;;;;;;5044723;28;20302;-69
2024/01/27 08:00:38;;;;;;;3.95;2.58;;;;;;;;;;5042967;28;20307;-70
2024/01/27 08:03:05;;;;;;;4.28;2.00;;;;;;;;;;5045015;28;20293;-69
2024/01/27 08:05:32;;;;;;;5.72;2.10;;;;;;;;;;5044202;28;20754;-69
2024/01/27 08:08:00;;;;;;;2.00;1.90;;;;;;;23.25;100.00;56616.03;5044689;28;20239;-70
2024/01/27 08:10:26;;;;;;;3.35;2.25;;;;;;;;;;5045051;28;20313;-69
2024/01/27 08:12:53;;;;;;;4.22;2.58;;;;;;;;;;5045753;28;20203;-70
2024/01/27 08:15:19;;;;;;;4.05;2.50;;;;;;;23.26;100.00;56616.03;5044726;28;20664;-68
2024/01/27 08:17:46;;;;;;;3.47;2.53;;;;;;;23.25;100.00;56616.03;5044986;28;20290;-69
2024/01/27 08:20:13;;;;;;;3.33;1.90;;;;;;;;;;5044625;28;20298;-68
2024/01/27 08:22:40;;;;;;;3.35;2.42;;;;;;;;;;5045950;28;20246;-69
2024/01/27 08:25:08;;;;;;;3.15;2.85;;;;;;;;;;5046080;28;20286;-68
2024/01/27 08:27:34;;;;;;;2.78;2.47;;;;;;;;;;5046473;28;20238;-69
2024/01/27 08:30:01;;;;;;;2.58;2.40;;;;;;;;;;5045046;28;20792;-69
2024/01/27 08:32:27;;;;;;;5.32;2.53;;;;;;;;;;5045472;28;20652;-69
2024/01/27 08:34:54;;;;;;;2.30;1.90;;;;;;;;;;5045454;28;20282;-69
2024/01/27 08:37:21;;;;;;;3.00;2.17;;;;;;;23.25;100.00;56616.03;5045471;28;20783;-70
2024/01/27 08:39:48;;;;;;;2.63;1.98;;;;;;;;;;5045559;28;20306;-69
2024/01/27 08:42:16;;;;;;;2.85;2.22;;;;;;;;;;5045262;28;20206;-70
2024/01/27 08:44:42;;;;;;;1.92;1.83;;;;;;;23.25;100.00;56616.03;5045329;28;20207;-70
2024/01/27 08:47:09;;;;;;;2.53;2.33;;;;;;;;;;5045823;28;20227;-70
2024/01/27 08:49:35;;;;;;;2.33;2.13;;;;;;;;;;5044926;28;20286;-69
2024/01/27 08:52:02;;;;;;;3.10;2.13;;;;;;;;;;5045635;28;20286;-69
2024/01/27 08:54:28;;;;;;;2.92;2.63;;;;;;;;;;5045569;28;20290;-69
2024/01/27 08:56:54;;;;;;;3.72;2.90;;;;;;;;;;5044899;28;20309;-69
2024/01/27 08:59:22;;;;;;;2.85;2.50;;;;;;;;;;5044205;28;20285;-69
2024/01/27 09:01:49;;;;;;;3.13;2.03;;;;;;;-142.91;100.00;56616.03;5045725;28;21267;-68
2024/01/27 09:04:15;;;;;;;2.00;1.90;;;;;;;;;;5044914;28;20677;-69
2024/01/27 09:06:42;;;;;;;2.53;1.30;;;;;;;-142.91;100.00;56616.03;5044993;28;20365;-69
2024/01/27 09:09:08;;;;;;;1.75;1.60;;;;;;;;;;5044152;28;20658;-68
2024/01/27 09:11:35;;;;;;;1.75;1.60;;;;;;;;;;5045624;28;20253;-69
2024/01/27 09:14:01;;;;;;;2.13;2.03;;;;;;;;;;5043827;28;20289;-69
2024/01/27 09:16:29;;;;;;;3.33;2.00;;;;;;;10.03;nan;95687.16;5044761;28;20314;-69
2024/01/27 09:18:56;;;;;;;2.10;1.40;;;;;;;;;;5044248;28;20603;-69
2024/01/27 09:21:27;;;;;;;2.08;1.98;;;;;;;;;;5045700;28;20309;-71
2024/01/27 09:23:54;;;;;;;2.33;1.77;;;;;;;8.44;nan;95660.53;5044416;28;20639;-69
2024/01/27 09:26:22;;;;;;;1.45;1.35;;;;;;;;;;5045008;28;20293;-70
2024/01/27 09:28:53;;;;;;;1.40;1.30;;;;;;;;;;5044537;28;20206;-69
2024/01/27 09:31:21;;;;;;;5.25;1.50;;;;;;;8.12;nan;95666.91;5044685;28;20583;-69
2024/01/27 09:33:50;;;;;;;1.30;1.20;;;;;;;8.11;nan;95623.91;5044909;28;20206;-69
2024/01/27 09:36:16;;;;;;;1.58;1.48;;;;;;;;;;5044335;28;20230;-69
2024/01/27 09:38:43;;;;;;;2.97;1.98;;;;;;;7.55;nan;95614.56;5044693;28;20215;-69
2024/01/27 09:41:11;;;;;;;1.60;1.50;;;;;;;7.31;nan;95618.25;5043615;28;20219;-70
2024/01/27 09:43:38;;;;;;;4.32;1.80;;;;;;;;;;5044713;28;20261;-70
2024/01/27 09:46:05;;;;;;;2.80;2.58;;;;;;;;;;5043948;28;20286;-69
2024/01/27 09:48:32;;;;;;;2.22;2.13;;;;;;;;;;5044359;28;20853;-69
2024/01/27 09:51:02;;;;;;;2.72;2.00;;;;;;;23.25;100.00;56616.03;5043810;28;20707;-69
2024/01/27 09:53:28;;;;;;;2.90;2.70;;;;;;;;;;5039002;28;21120;-70
2024/01/27 09:55:56;;;;;;;1.40;1.23;;;;;;;;;;5042537;28;20321;-69
2024/01/27 09:58:23;;;;;;;2.78;1.88;;;;;;;;;;5042699;28;20199;-68
2024/01/27 10:00:50;;;;;;;3.53;2.33;;;;;;;-142.91;100.00;56616.03;5041859;28;20293;-68
2024/01/27 10:03:20;;;;;;;3.67;2.22;;;;;;;;;;5042527;28;20361;-69
2024/01/27 10:05:47;;;;;;;1.88;1.80;;;;;;;;;;5042111;28;20226;-67
2024/01/27 10:08:15;;;;;;;1.95;1.85;;;;;;;;;;5041459;28;20261;-68
2024/01/27 10:10:41;;;;;;;1.60;1.50;;;;;;;;;;5041617;28;20527;-68
2024/01/27 10:13:08;;;;;;;2.58;1.65;;;;;;;;;;5042280;28;20294;-67
2024/01/27 10:15:35;;;;;;;1.50;1.35;;;;;;;;;;5041329;28;20302;-67
2024/01/27 10:18:07;;;;;;;1.65;1.58;;;;;;;;;;5043482;28;20313;-67
2024/01/27 10:20:34;;;;;;;1.83;1.40;;;;;;;-142.91;100.00;56616.03;5043139;28;20211;-68
2024/01/27 10:23:00;;;;;;;1.90;1.70;;;;;;;;;;5041530;28;20322;-67
2024/01/27 10:25:28;;;;;;;1.48;1.38;;;;;;;;;;5042074;28;20752;-69
2024/01/27 10:27:57;;;;;;;2.58;2.47;;;;;;;;;;5043830;28;20281;-69
2024/01/27 10:30:23;;;;;;;1.58;1.48;;;;;;;;;;5042779;28;20199;-69
2024/01/27 10:32:57;;;;;;;2.03;1.75;;;;;;;;;;5043317;28;20281;-69
2024/01/27 10:35:23;;;;;;;3.38;1.98;;;;;;;;;;5043598;28;20223;-70
2024/01/27 10:37:52;;;;;;;1.80;1.70;;;;;;;;;;5042646;28;20314;-68
2024/01/27 10:40:18;;;;;;;1.58;1.48;;;;;;;;;;5042062;28;20203;-68
2024/01/27 10:42:46;;;;;;;1.70;1.60;;;;;;;;;;5043284;28;20290;-69
2024/01/27 10:45:13;;;;;;;2.00;1.67;;;;;;;;;;5039750;28;20617;-70
2024/01/27 10:47:40;;;;;;;1.88;1.77;;;;;;;;;;5041590;28;20289;-69
2024/01/27 10:50:09;;;;;;;1.90;1.80;;;;;;;;;;5042808;28;20282;-69
2024/01/27 10:52:38;;;;;;;2.35;2.25;;;;;;;;;;5041934;28;20289;-68
2024/01/27 10:55:07;;;;;;;2.85;2.03;;;;;;;;;;5042315;28;20294;-69
2024/01/27 10:57:33;;;;;;;1.90;1.77;;;;;;;;;;5041582;28;20226;-70
2024/01/27 11:00:03;;;;;;;2.00;1.50;;;;;;;;;;5040987;28;20321;-71
2024/01/27 11:02:33;;;;;;;1.40;1.40;;;;;;;;;;5040917;28;20202;-69
2024/01/27 11:05:00;;;;;;;1.50;1.40;;;;;;;;;;5043807;28;20688;-69
2024/01/27 11:07:26;;;;;;;1.85;1.08;;;;;;;;;;5047159;28;20345;-69
2024/01/27 11:09:52;;;;;;;1.98;1.42;;;;;;;;;;5045785;28;20293;-70
2024/01/27 11:12:20;;;;;;;1.60;1.50;;;;;;;;;;5046524;28;20285;-69
2024/01/27 11:14:47;;;;;;;2.00;1.90;;;;;;;;;;5047025;28;20207;-67
2024/01/27 11:17:15;;;;;;;1.48;1.48;;;;;;;;;;5045928;28;20313;-68
2024/01/27 11:19:41;;;;;;;1.70;1.60;;;;;;;;;;5045890;28;20206;-69
2024/01/27 11:22:08;;;;;;;1.75;1.65;;;;;;;;;;5044627;28;20218;-68
2024/01/27 11:24:34;;;;;;;2.30;2.20;;;;;;;;;;5041445;28;20293;-69
2024/01/27 11:27:00;;;;;;;3.05;1.70;;;;;;;;;;5045870;28;20199;-70
2024/01/27 11:29:27;;;;;;;3.10;2.67;;;;;;;;;;5046574;28;20225;-69
2024/01/27 11:31:55;;;;;;;2.00;1.90;;;;;;;;;;5044345;28;20742;-65
2024/01/27 11:34:23;;;;;;;2.65;1.85;;;;;;;;;;5044644;28;20290;-80
2024/01/27 11:36:50;;;;;;;2.03;1.92;;;;;;;-142.91;100.00;56616.03;5045524;28;20728;-76
2024/01/27 11:39:26;;;;;;;4.90;2.17;;;;;;;;;;5047864;28;20736;-79
2024/01/27 11:41:53;;;;;;;2.58;2.00;;;;;;;;;;5040105;28;20210;-77
2024/01/27 11:44:20;;;;;;;2.35;2.25;;;;;;;;;;5047399;28;20199;-80
2024/01/27 11:46:46;;;;;;;1.67;1.58;;;;;;;;;;5047361;28;20295;-79
2024/01/27 11:49:15;;;;;;;1.92;1.70;;;;;;;;;;5049476;28;20286;-77
2024/01/27 11:51:43;;;;;;;2.10;2.00;;;;;;;;;;5052753;28;20227;-77
2024/01/27 11:54:09;;;;;;;2.75;1.98;;;;;;;;;;5050085;28;20349;-80
2024/01/27 11:56:35;;;;;;;1.90;1.80;;;;;;;;;;5052684;28;20792;-78
2024/01/27 11:59:02;;;;;;;4.63;4.15;;;;;;;;;;5056224;28;20234;-79
2024/01/27 12:01:28;;;;;;;2.70;1.80;;;;;;;;;;5060893;28;20196;-79
2024/01/27 12:03:55;;;;;;;2.33;2.13;;;;;;;;;;5053565;28;20238;-77
2024/01/27 12:06:21;;;;;;;5.05;3.03;;;;;;;;;;5062420;28;20317;-78
2024/01/27 12:08:50;;;;;;;6.03;2.15;;;;;;;;;;5055644;28;20290;-78
2024/01/27 12:11:16;;;;;;;2.55;2.05;;;;;;;;;;5060245;28;20273;-77
2024/01/27 12:13:42;;;;;;;2.00;1.90;;;;;;;;;;5061678;28;20195;-77
2024/01/27 12:16:09;;;;;;;2.58;1.95;;;;;;;;;;5060292;28;20290;-77
2024/01/27 12:18:36;;;;;;;2.13;1.92;;;;;;;;;;5059806;28;20233;-78
2024/01/27 12:21:02;;;;;;;1.83;1.70;;;;;;;-142.91;100.00;56616.03;5052625;28;20309;-78
2024/01/27 12:23:29;;;;;;;2.60;2.25;;;;;;;23.33;100.00;56616.03;5052192;28;20234;-77
2024/01/27 12:25:57;;;;;;;4.22;3.40;;;;;;;23.25;100.00;56616.03;5052913;28;20238;-75
2024/01/27 12:28:24;;;;;;;2.58;2.38;;;;;;;-142.91;100.00;56616.03;5052648;28;20227;-81
2024/01/27 12:30:51;;;;;;;6.13;4.38;;;;;;;23.25;100.00;56616.03;5059257;28;20207;-78
2024/01/27 12:33:19;;;;;;;3.42;2.00;;;;;;;;;;5052572;28;20227;-80
2024/01/27 12:35:46;;;;;;;2.75;2.30;;;;;;;;;;5053012;28;20206;-80
2024/01/27 12:38:12;;;;;;;1.98;1.88;;;;;;;-142.91;100.00;56616.03;5052937;28;20306;-78
2024/01/27 12:40:39;;;;;;;1.65;1.55;;;;;;;;;;5063013;28;20264;-80
2024/01/27 12:43:07;;;;;;;1.83;1.73;;;;;;;-142.91;100.00;56616.03;5067141;28;20223;-78
2024/01/27 12:45:34;;;;;;;2.17;2.08;;;;;;;-142.91;100.00;56616.03;5042152;28;20670;-79
2024/01/27 12:48:02;;;;;;;3.60;3.08;;;;;;;-142.91;100.00;56616.03;5051059;28;20235;-78
2024/01/27 12:50:28;;;;;;;2.90;2.70;;;;;;;-142.91;100.00;56616.03;5052067;28;20211;-80
2024/01/27 12:52:55;;;;;;;5.25;3.65;;;;;;;-142.91;100.00;56616.03;5052933;28;20230;-78
2024/01/27 12:55:21;;;;;;;4.00;3.20;;;;;;;-142.91;100.00;56616.03;5052284;28;20205;-79
2024/01/27 12:57:48;;;;;;;2.35;2.25;;;;;;;-142.91;100.00;56616.03;5051927;28;20273;-78
2024/01/27 13:00:17;;;;;;;1.70;1.60;;;;;;;-142.91;100.00;56616.03;5040833;28;20235;-78
2024/01/27 13:02:44;;;;;;;1.55;1.20;;;;;;;-142.91;100.00;56616.03;5051967;28;20235;-78
2024/01/27 13:05:10;;;;;;;2.42;1.45;;;;;;;;;;5052203;28;20241;-75
2024/01/27 13:07:37;;;;;;;3.88;2.15;;;;;;;;;;5052323;28;20284;-80
2024/01/27 13:10:03;;;;;;;1.10;1.10;;;;;;;;;;5051727;28;20290;-77
2024/01/27 13:12:29;;;;;;;1.75;1.20;;;;;;;;;;5051441;28;20195;-77
2024/01/27 13:14:56;;;;;;;1.25;1.15;;;;;;;;;;5051226;28;20233;-81
2024/01/27 13:17:24;;;;;;;2.95;1.60;;;;;;;;;;5039689;28;20223;-78
2024/01/27 13:19:50;;;;;;;5.20;1.30;;;;;;;;;;5051750;28;20234;-78
2024/01/27 13:25:01;;;;;;;1.27;1.20;;;;;;;;;;5052406;28;20213;-79
2024/01/27 13:27:28;;;;;;;4.43;1.30;;;;;;;;;;5050947;28;20627;-80
2024/01/27 13:29:54;;;;;;;1.15;1.02;;;;;;;;;;5046533;28;20290;-78
2024/01/27 13:32:20;;;;;;;4.88;1.52;;;;;;;;;;5049896;28;20294;-81
2024/01/27 13:34:49;;;;;;;2.00;1.90;;;;;;;;;;5048328;28;20317;-78
2024/01/27 13:37:15;;;;;;;8.05;1.75;;;;;;;;;;5039689;28;20226;-79
2024/01/27 13:39:42;;;;;;;1.80;1.55;;;;;;;;;;5049423;28;20199;-80
2024/01/27 13:42:08;;;;;;;1.55;1.35;;;;;;;-142.91;100.00;56616.03;5049779;28;20290;-80
2024/01/27 13:44:36;;;;;;;2.03;1.50;;;;;;;-142.91;100.00;56616.03;5050388;28;20673;-79
2024/01/27 13:47:02;;;;;;;1.30;1.20;;;;;;;;;;5049303;28;20207;-78
2024/01/27 13:49:29;;;;;;;2.03;1.50;;;;;;;;;;5049320;28;20241;-77
2024/01/27 13:51:56;;;;;;;2.55;1.45;;;;;;;;;;5050188;28;20295;-80
2024/01/27 13:54:23;;;;;;;12.63;1.77;;;;;;;;;;5060225;28;20235;-80
2024/01/27 13:56:49;;;;;;;1.35;1.30;;;;;;;;;;5041676;28;20253;-81
2024/01/27 13:59:16;;;;;;;3.60;1.42;;;;;;;;;;5049573;28;20218;-79